createdAt,value
2022-10-18T00:01:09.149Z,8.40
2022-10-18T00:06:14.816Z,8.30
2022-10-18T00:08:42.683Z,7.30
2022-10-18T00:11:10.709Z,7.70
2022-10-18T00:13:38.828Z,7.60
2022-10-18T00:16:12.354Z,7.20
2022-10-18T00:18:41.109Z,8.30
2022-10-18T00:21:14.310Z,7.30
2022-10-18T00:23:42.795Z,7.10
2022-10-18T00:26:14.753Z,6.50
2022-10-18T00:28:43.841Z,6.30
2022-10-18T00:33:50.136Z,6.60
2022-10-18T00:36:18.208Z,6.00
2022-10-18T00:38:47.221Z,5.90
2022-10-18T00:41:18.961Z,6.80
2022-10-18T00:43:51.287Z,6.00
2022-10-18T00:46:19.613Z,5.40
2022-10-18T00:48:48.563Z,6.20
2022-10-18T00:51:20.460Z,7.10
2022-10-18T00:53:49.557Z,5.80
2022-10-18T00:56:18.099Z,7.90
2022-10-18T00:58:48.157Z,7.10
2022-10-18T01:01:16.263Z,7.40
2022-10-18T01:03:44.607Z,6.00
2022-10-18T01:06:12.620Z,6.30
2022-10-18T01:08:45.769Z,6.90
2022-10-18T01:11:22.648Z,8.50
2022-10-18T01:14:22.668Z,7.10
2022-10-18T01:17:00.461Z,7.40
2022-10-18T01:19:49.533Z,6.60
2022-10-18T01:22:33.987Z,6.10
2022-10-18T01:25:26.442Z,5.50
2022-10-18T01:28:31.637Z,5.50
2022-10-18T01:31:18.634Z,7.70
2022-10-18T01:33:52.160Z,7.30
2022-10-18T01:36:33.107Z,7.30
2022-10-18T01:39:06.279Z,7.20
2022-10-18T01:41:38.755Z,7.20
2022-10-18T01:44:09.604Z,7.40
2022-10-18T01:46:39.903Z,8.00
2022-10-18T01:49:07.969Z,7.30
2022-10-18T01:51:36.342Z,6.90
2022-10-18T01:54:05.110Z,6.90
2022-10-18T01:57:24.403Z,7.40
2022-10-18T02:00:00.787Z,6.30
2022-10-18T02:02:59.432Z,7.00
2022-10-18T02:05:40.345Z,7.60
2022-10-18T02:08:23.151Z,7.20
2022-10-18T02:10:57.364Z,7.20
2022-10-18T02:13:29.396Z,7.50
2022-10-18T02:16:03.831Z,7.50
2022-10-18T02:18:40.015Z,7.80
2022-10-18T02:21:11.617Z,7.50
2022-10-18T02:23:39.902Z,6.70
2022-10-18T02:26:08.123Z,7.60
2022-10-18T02:28:36.216Z,6.70
2022-10-18T02:31:31.083Z,8.10
2022-10-18T02:34:10.180Z,7.20
2022-10-18T02:36:46.490Z,8.30
2022-10-18T02:39:30.534Z,7.20
2022-10-18T02:41:59.850Z,7.20
2022-10-18T02:46:55.755Z,7.00
2022-10-18T02:49:23.748Z,7.60
2022-10-18T02:51:51.928Z,7.40
2022-10-18T02:54:20.198Z,7.30
2022-10-18T02:56:48.269Z,7.30
2022-10-18T02:59:17.059Z,7.40
2022-10-18T03:01:45.237Z,6.60
2022-10-18T03:04:13.532Z,6.80
2022-10-18T03:06:41.582Z,7.70
2022-10-18T03:09:10.162Z,7.10
2022-10-18T03:11:38.239Z,8.40
2022-10-18T03:14:06.205Z,7.10
2022-10-18T03:16:34.379Z,6.60
2022-10-18T03:19:02.418Z,6.40
2022-10-18T03:21:30.522Z,6.10
2022-10-18T03:23:59.775Z,6.00
2022-10-18T03:26:27.693Z,6.80
2022-10-18T03:28:55.923Z,5.80
2022-10-18T03:31:23.943Z,5.70
2022-10-18T03:33:52.010Z,6.00
2022-10-18T03:36:23.061Z,6.90
2022-10-18T03:38:51.020Z,7.40
2022-10-18T03:41:20.717Z,7.90
2022-10-18T03:43:48.881Z,7.10
2022-10-18T03:46:17.190Z,6.20
2022-10-18T03:48:45.060Z,5.80
2022-10-18T03:51:13.122Z,6.00
2022-10-18T03:53:40.957Z,6.50
2022-10-18T03:56:08.855Z,5.90
2022-10-18T03:58:36.860Z,7.40
2022-10-18T04:01:04.899Z,6.90
2022-10-18T04:03:32.819Z,6.60
2022-10-18T04:06:00.941Z,6.80
2022-10-18T04:08:29.555Z,6.60
2022-10-18T04:10:57.617Z,7.00
2022-10-18T04:13:25.497Z,6.80
2022-10-18T04:15:53.442Z,7.20
2022-10-18T04:18:21.406Z,6.30
2022-10-18T04:20:49.288Z,7.00
2022-10-18T04:23:17.268Z,6.40
2022-10-18T04:25:45.213Z,6.70
2022-10-18T04:28:13.184Z,7.20
2022-10-18T04:30:41.049Z,6.40
2022-10-18T04:33:09.013Z,6.10
2022-10-18T04:35:37.089Z,6.40
2022-10-18T04:38:04.958Z,6.80
2022-10-18T04:40:33.030Z,6.30
2022-10-18T04:43:01.036Z,5.80
2022-10-18T04:45:29.374Z,6.20
2022-10-18T04:47:57.445Z,8.20
2022-10-18T04:50:25.415Z,7.80
2022-10-18T04:52:53.810Z,7.70
2022-10-18T04:55:21.711Z,7.10
2022-10-18T04:57:49.686Z,7.20
2022-10-18T05:00:17.805Z,8.10
2022-10-18T05:02:45.773Z,8.20
2022-10-18T05:05:14.415Z,8.50
2022-10-18T05:07:42.637Z,8.40
2022-10-18T05:10:11.118Z,7.20
2022-10-18T05:12:39.188Z,7.30
2022-10-18T05:15:07.670Z,7.00
2022-10-18T05:17:36.101Z,6.70
2022-10-18T05:20:04.940Z,7.10
2022-10-18T05:22:33.313Z,9.20
2022-10-18T05:25:01.576Z,8.30
2022-10-18T05:27:29.956Z,8.70
2022-10-18T05:30:00.033Z,8.80
2022-10-18T05:32:31.555Z,7.00
2022-10-18T05:34:59.811Z,7.90
2022-10-18T05:37:28.520Z,6.30
2022-10-18T05:39:56.657Z,6.40
2022-10-18T05:42:24.934Z,7.20
2022-10-18T05:44:53.109Z,6.20
2022-10-18T05:47:21.384Z,6.50
2022-10-18T05:49:49.545Z,8.00
2022-10-18T05:52:17.834Z,8.70
2022-10-18T05:54:45.907Z,7.00
2022-10-18T05:57:13.977Z,8.30
2022-10-18T05:59:41.948Z,8.40
2022-10-18T06:02:12.108Z,9.00
2022-10-18T06:04:40.041Z,10.00
2022-10-18T06:07:12.206Z,10.30
2022-10-18T06:09:40.481Z,10.00
2022-10-18T06:12:09.167Z,10.50
2022-10-18T06:14:37.653Z,10.20
2022-10-18T06:17:05.926Z,10.60
2022-10-18T06:19:33.813Z,10.70
2022-10-18T06:22:02.081Z,11.40
2022-10-18T06:24:30.042Z,10.50
2022-10-18T06:26:58.675Z,10.80
2022-10-18T06:29:26.819Z,10.90
2022-10-18T06:31:55.075Z,11.10
2022-10-18T06:34:23.046Z,10.90
2022-10-18T06:36:56.418Z,11.00
2022-10-18T06:39:26.563Z,11.30
2022-10-18T06:41:54.745Z,11.10
2022-10-18T06:44:23.010Z,11.50
2022-10-18T06:46:52.007Z,11.80
2022-10-18T06:49:20.084Z,11.50
2022-10-18T06:51:48.220Z,11.10
2022-10-18T06:54:18.333Z,11.50
2022-10-18T06:56:46.979Z,12.80
2022-10-18T06:59:15.340Z,12.00
2022-10-18T07:01:43.909Z,13.50
2022-10-18T07:04:12.081Z,11.50
2022-10-18T07:06:40.164Z,12.60
2022-10-18T07:09:08.240Z,12.00
2022-10-18T07:11:36.207Z,12.10
2022-10-18T07:14:05.042Z,11.00
2022-10-18T07:16:34.520Z,12.40
2022-10-18T07:19:02.698Z,11.70
2022-10-18T07:21:31.570Z,11.80
2022-10-18T07:23:59.521Z,13.00
2022-10-18T07:26:30.336Z,11.90
2022-10-18T07:29:07.851Z,12.70
2022-10-18T07:31:38.546Z,13.00
2022-10-18T07:34:08.015Z,13.40
2022-10-18T07:36:35.893Z,12.50
2022-10-18T07:39:04.922Z,12.10
2022-10-18T07:41:34.269Z,12.00
2022-10-18T07:44:03.159Z,12.30
2022-10-18T07:46:31.434Z,13.50
2022-10-18T07:48:59.814Z,11.20
2022-10-18T07:51:28.294Z,10.40
2022-10-18T07:53:56.365Z,13.40
2022-10-18T07:56:24.443Z,12.30
2022-10-18T07:58:54.257Z,12.50
2022-10-18T08:01:24.127Z,12.20
2022-10-18T08:03:53.161Z,11.90
2022-10-18T08:06:22.952Z,12.90
2022-10-18T08:08:52.479Z,12.20
2022-10-18T08:11:23.574Z,11.60
2022-10-18T08:13:53.129Z,11.10
2022-10-18T08:16:28.996Z,12.20
2022-10-18T08:19:00.455Z,12.40
2022-10-18T08:21:28.610Z,11.90
2022-10-18T08:23:56.613Z,11.80
2022-10-18T08:26:24.703Z,12.20
2022-10-18T08:28:58.544Z,12.40
2022-10-18T08:31:37.857Z,11.50
2022-10-18T08:34:05.876Z,13.90
2022-10-18T08:36:34.051Z,13.50
2022-10-18T08:39:03.348Z,12.80
2022-10-18T08:41:44.317Z,13.40
2022-10-18T08:44:23.037Z,13.00
2022-10-18T08:47:06.774Z,14.10
2022-10-18T08:49:46.775Z,14.20
2022-10-18T08:52:58.523Z,14.30
2022-10-18T08:55:36.430Z,12.80
2022-10-18T08:58:17.298Z,14.00
2022-10-18T09:00:58.988Z,14.50
2022-10-18T09:03:47.812Z,13.90
2022-10-18T09:06:43.172Z,14.30
2022-10-18T09:09:32.951Z,15.80
2022-10-18T09:12:26.003Z,14.40
2022-10-18T09:15:18.545Z,15.30
2022-10-18T09:18:14.064Z,18.30
2022-10-18T09:21:00.466Z,15.30
2022-10-18T09:23:46.922Z,15.80
2022-10-18T09:26:20.059Z,16.70
2022-10-18T09:29:09.780Z,14.50
2022-10-18T09:31:50.708Z,14.30
2022-10-18T09:34:29.029Z,27.80
2022-10-18T09:36:58.030Z,35.90
2022-10-18T09:39:31.452Z,87.60
2022-10-18T09:42:12.180Z,46.50
2022-10-18T09:44:45.783Z,15.40
2022-10-18T09:47:37.151Z,16.10
2022-10-18T09:50:42.756Z,16.40
2022-10-18T09:53:20.445Z,17.30
2022-10-18T09:56:06.362Z,16.70
2022-10-18T09:58:46.638Z,16.20
2022-10-18T10:01:21.371Z,16.40
2022-10-18T10:03:49.704Z,16.30
2022-10-18T10:06:29.654Z,16.10
2022-10-18T10:09:00.994Z,16.10
2022-10-18T10:11:34.915Z,14.70
2022-10-18T10:14:10.381Z,14.50
2022-10-18T10:16:51.434Z,16.00
2022-10-18T10:19:37.332Z,31.50
2022-10-18T10:22:14.556Z,37.90
2022-10-18T10:25:00.809Z,43.50
2022-10-18T10:27:32.387Z,17.50
2022-10-18T10:30:07.355Z,16.70
2022-10-18T10:32:48.106Z,16.70
2022-10-18T10:35:35.499Z,15.30
2022-10-18T10:38:24.657Z,15.50
2022-10-18T10:40:53.461Z,14.20
2022-10-18T10:43:37.610Z,16.00
2022-10-18T10:46:19.340Z,15.80
2022-10-18T10:49:27.831Z,14.40
2022-10-18T10:52:08.235Z,13.50
2022-10-18T10:54:39.220Z,14.90
2022-10-18T10:57:16.599Z,14.20
2022-10-18T10:59:48.053Z,15.20
2022-10-18T11:02:21.657Z,20.80
2022-10-18T11:04:55.259Z,14.20
2022-10-18T11:07:41.152Z,31.60
2022-10-18T11:10:26.871Z,13.80
2022-10-18T11:13:05.551Z,11.60
2022-10-18T11:18:10.922Z,13.20
2022-10-18T11:20:43.936Z,12.10
2022-10-18T11:23:14.837Z,11.40
2022-10-18T11:26:05.029Z,10.70
2022-10-18T11:29:07.172Z,25.80
2022-10-18T11:32:07.681Z,9.70
2022-10-18T11:34:47.997Z,10.50
2022-10-18T11:37:28.208Z,19.50
2022-10-18T11:40:17.721Z,11.40
2022-10-18T11:43:12.772Z,10.80
2022-10-18T11:46:00.661Z,9.90
2022-10-18T11:49:07.247Z,9.60
2022-10-18T11:52:06.612Z,9.40
2022-10-18T11:54:44.995Z,9.70
2022-10-18T11:57:27.979Z,9.40
2022-10-18T12:00:08.544Z,8.00
2022-10-18T12:03:14.431Z,8.80
2022-10-18T12:05:46.724Z,7.90
2022-10-18T12:08:21.406Z,7.70
2022-10-18T12:11:04.471Z,8.20
2022-10-18T12:13:50.314Z,8.90
2022-10-18T12:16:38.901Z,7.90
2022-10-18T12:19:23.571Z,7.30
2022-10-18T12:22:13.989Z,7.90
2022-10-18T12:24:42.489Z,7.30
2022-10-18T12:27:14.577Z,8.80
2022-10-18T12:29:51.588Z,5.80
2022-10-18T12:32:27.210Z,6.10
2022-10-18T12:35:01.375Z,6.10
2022-10-18T12:37:51.199Z,7.30
2022-10-18T12:40:46.951Z,6.20
2022-10-18T12:43:41.718Z,6.00
2022-10-18T12:46:13.702Z,5.60
2022-10-18T12:48:48.780Z,5.80
2022-10-18T12:51:20.030Z,5.90
2022-10-18T12:53:55.055Z,5.70
2022-10-18T12:56:29.326Z,5.70
2022-10-18T12:59:15.569Z,6.00
2022-10-18T13:01:55.599Z,5.70
2022-10-18T13:04:32.697Z,5.90
2022-10-18T13:07:08.356Z,6.10
2022-10-18T13:10:03.049Z,6.20
2022-10-18T13:12:43.815Z,5.90
2022-10-18T13:15:47.253Z,5.90
2022-10-18T13:18:22.481Z,5.60
2022-10-18T13:21:11.059Z,6.90
2022-10-18T13:23:41.950Z,5.50
2022-10-18T13:26:38.060Z,5.70
2022-10-18T13:29:36.972Z,5.70
2022-10-18T13:34:48.271Z,5.90
2022-10-18T13:37:16.329Z,6.50
2022-10-18T13:39:45.254Z,6.00
2022-10-18T13:42:16.133Z,6.50
2022-10-18T13:44:45.064Z,6.60
2022-10-18T13:47:33.994Z,6.60
2022-10-18T13:50:22.558Z,5.80
2022-10-18T13:55:57.533Z,6.30
2022-10-18T13:58:49.244Z,6.40
2022-10-18T14:02:00.308Z,6.30
2022-10-18T14:04:46.979Z,6.60
2022-10-18T14:07:19.441Z,6.20
2022-10-18T14:09:59.495Z,5.20
2022-10-18T14:12:47.885Z,5.30
2022-10-18T14:15:26.345Z,5.60
2022-10-18T14:18:02.281Z,6.70
2022-10-18T14:21:01.534Z,5.80
2022-10-18T14:23:42.062Z,5.30
2022-10-18T14:26:19.039Z,5.50
2022-10-18T14:29:03.225Z,5.50
2022-10-18T14:31:31.776Z,5.90
2022-10-18T14:34:00.174Z,6.00
2022-10-18T14:36:35.720Z,5.90
2022-10-18T14:39:07.810Z,5.70
2022-10-18T14:41:41.266Z,5.60
2022-10-18T14:44:29.833Z,5.30
2022-10-18T14:47:03.842Z,5.50
2022-10-18T14:49:32.038Z,6.00
2022-10-18T14:52:01.231Z,5.00
2022-10-18T14:54:37.987Z,5.60
2022-10-18T14:57:07.500Z,5.00
2022-10-18T14:59:59.838Z,6.00
2022-10-18T15:02:30.727Z,5.40
2022-10-18T15:05:19.957Z,5.70
2022-10-18T15:07:50.334Z,5.80
2022-10-18T15:10:23.406Z,4.80
2022-10-18T15:13:09.293Z,4.60
2022-10-18T15:15:39.591Z,6.00
2022-10-18T15:18:15.937Z,5.70
2022-10-18T15:20:43.843Z,5.60
2022-10-18T15:23:38.799Z,5.60
2022-10-18T15:26:13.218Z,5.60
2022-10-18T15:28:50.236Z,6.20
2022-10-18T15:31:27.861Z,5.70
2022-10-18T15:34:10.825Z,6.10
2022-10-18T15:36:38.844Z,5.60
2022-10-18T15:39:13.427Z,5.80
2022-10-18T15:41:49.065Z,5.80
2022-10-18T15:44:51.034Z,6.60
2022-10-18T15:47:21.778Z,5.40
2022-10-18T15:49:51.329Z,6.20
2022-10-18T15:52:39.511Z,7.00
2022-10-18T15:55:46.376Z,6.30
2022-10-18T15:58:21.469Z,7.30
2022-10-18T16:00:51.345Z,6.80
2022-10-18T16:03:22.387Z,6.50
2022-10-18T16:05:56.376Z,6.70
2022-10-18T16:08:28.913Z,7.30
2022-10-18T16:10:58.995Z,7.50
2022-10-18T16:13:27.578Z,7.40
2022-10-18T16:15:59.748Z,8.00
2022-10-18T16:18:28.229Z,7.30
2022-10-18T16:20:56.812Z,9.20
2022-10-18T16:23:28.717Z,14.10
2022-10-18T16:25:57.284Z,9.50
2022-10-18T16:28:26.684Z,10.30
2022-10-18T16:31:02.166Z,9.00
2022-10-18T16:33:31.098Z,10.50
2022-10-18T16:35:59.171Z,20.10
2022-10-18T16:38:32.637Z,26.50
2022-10-18T16:41:04.977Z,13.40
2022-10-18T16:43:34.777Z,23.00
2022-10-18T16:46:04.696Z,12.50
2022-10-18T16:48:33.267Z,11.80
2022-10-18T16:51:01.735Z,15.40
2022-10-18T16:53:29.682Z,16.10
2022-10-18T16:56:00.553Z,13.70
2022-10-18T16:58:30.328Z,12.80
2022-10-18T17:01:01.025Z,14.50
2022-10-18T17:03:31.617Z,15.10
2022-10-18T17:05:59.589Z,9.00
2022-10-18T17:08:28.328Z,9.60
2022-10-18T17:10:59.479Z,8.30
2022-10-18T17:13:27.645Z,7.40
2022-10-18T17:15:55.868Z,7.60
2022-10-18T17:18:30.577Z,22.60
2022-10-18T17:21:02.872Z,17.80
2022-10-18T17:23:31.246Z,9.90
2022-10-18T17:26:08.658Z,24.10
2022-10-18T17:28:43.631Z,12.00
2022-10-18T17:31:14.536Z,9.90
2022-10-18T17:33:42.838Z,11.40
2022-10-18T17:36:11.292Z,9.00
2022-10-18T17:38:39.221Z,8.20
2022-10-18T17:41:11.418Z,8.60
2022-10-18T17:46:14.820Z,10.10
2022-10-18T17:48:43.915Z,11.10
2022-10-18T17:51:14.886Z,12.00
2022-10-18T17:53:43.028Z,12.70
2022-10-18T17:56:12.125Z,11.80
2022-10-18T17:58:43.277Z,12.80
2022-10-18T18:01:15.749Z,12.80
2022-10-18T18:03:44.075Z,12.10
2022-10-18T18:06:19.704Z,12.60
2022-10-18T18:08:49.279Z,12.80
2022-10-18T18:11:18.583Z,12.50
2022-10-18T18:16:16.054Z,10.00
2022-10-18T18:18:48.806Z,12.00
2022-10-18T18:21:17.444Z,12.80
2022-10-18T18:23:46.230Z,19.20
2022-10-18T18:26:15.409Z,33.30
2022-10-18T18:28:43.823Z,14.20
2022-10-18T18:31:24.982Z,17.10
2022-10-18T18:33:55.717Z,10.40
2022-10-18T18:36:29.017Z,8.60
2022-10-18T18:38:57.955Z,9.10
2022-10-18T18:41:28.231Z,8.60
2022-10-18T18:43:59.013Z,7.80
2022-10-18T18:46:30.020Z,7.80
2022-10-18T18:48:58.473Z,8.60
2022-10-18T18:51:26.751Z,5.80
2022-10-18T18:53:55.336Z,5.60
2022-10-18T18:56:26.179Z,6.30
2022-10-18T18:58:55.061Z,5.50
2022-10-18T19:01:25.577Z,6.30
2022-10-18T19:03:55.652Z,5.70
2022-10-18T19:06:30.727Z,6.50
2022-10-18T19:09:02.814Z,6.00
2022-10-18T19:11:37.915Z,7.00
2022-10-18T19:14:08.416Z,7.00
2022-10-18T19:16:39.234Z,6.90
2022-10-18T19:19:11.706Z,7.40
2022-10-18T19:21:48.258Z,6.90
2022-10-18T19:24:16.227Z,7.00
2022-10-18T19:26:53.104Z,6.80
2022-10-18T19:29:29.137Z,7.30
2022-10-18T19:31:59.901Z,7.30
2022-10-18T19:34:29.391Z,8.10
2022-10-18T19:36:58.091Z,8.20
2022-10-18T19:39:31.725Z,7.60
2022-10-18T19:42:03.346Z,7.70
2022-10-18T19:44:33.761Z,8.30
2022-10-18T19:47:03.188Z,7.80
2022-10-18T19:49:31.250Z,8.40
2022-10-18T19:51:59.219Z,7.30
2022-10-18T19:54:27.189Z,8.70
2022-10-18T19:56:55.373Z,8.30
2022-10-18T19:59:24.260Z,7.70
2022-10-18T20:01:52.240Z,7.30
2022-10-18T20:04:20.299Z,7.40
2022-10-18T20:06:48.340Z,7.40
2022-10-18T20:09:19.670Z,8.20
2022-10-18T20:11:49.025Z,8.40
2022-10-18T20:14:16.918Z,7.30
2022-10-18T20:16:44.913Z,7.40
2022-10-18T20:19:12.929Z,7.60
2022-10-18T20:21:40.895Z,7.50
2022-10-18T20:24:09.536Z,7.80
2022-10-18T20:26:37.786Z,8.10
2022-10-18T20:29:07.565Z,7.80
2022-10-18T20:31:38.465Z,7.70
2022-10-18T20:34:10.693Z,7.70
2022-10-18T20:36:39.672Z,8.10
2022-10-18T20:39:08.277Z,7.70
2022-10-18T20:41:38.891Z,7.70
2022-10-18T20:44:11.935Z,7.50
2022-10-18T20:46:40.663Z,7.20
2022-10-18T20:49:12.757Z,7.40
2022-10-18T20:51:41.109Z,7.80
2022-10-18T20:54:10.493Z,7.20
2022-10-18T20:56:39.223Z,6.60
2022-10-18T20:59:09.904Z,6.40
2022-10-18T21:01:39.727Z,6.40
2022-10-18T21:04:09.775Z,6.40
2022-10-18T21:06:41.045Z,6.20
2022-10-18T21:09:12.669Z,7.60
2022-10-18T21:11:43.061Z,7.10
2022-10-18T21:14:13.782Z,7.00
2022-10-18T21:16:42.968Z,8.50
2022-10-18T21:19:15.012Z,7.00
2022-10-18T21:21:44.903Z,6.80
2022-10-18T21:24:13.701Z,6.10
2022-10-18T21:26:41.969Z,7.80
2022-10-18T21:29:11.569Z,6.90
2022-10-18T21:31:41.695Z,7.30
2022-10-18T21:34:15.696Z,7.30
2022-10-18T21:36:47.269Z,6.10
2022-10-18T21:39:19.153Z,7.30
2022-10-18T21:41:47.831Z,7.80
2022-10-18T21:44:17.012Z,8.00
2022-10-18T21:46:47.037Z,8.10
2022-10-18T21:49:16.325Z,8.70
2022-10-18T21:51:44.602Z,8.70
2022-10-18T21:54:14.717Z,10.10
2022-10-18T21:56:43.614Z,7.00
2022-10-18T21:59:13.352Z,7.60
2022-10-18T22:01:44.193Z,7.80
2022-10-18T22:04:23.481Z,8.00
2022-10-18T22:09:21.512Z,6.90
2022-10-18T22:11:53.316Z,6.90
2022-10-18T22:14:22.389Z,6.60
2022-10-18T22:16:51.332Z,6.50
2022-10-18T22:19:19.569Z,7.90
2022-10-18T22:21:47.767Z,8.00
2022-10-18T22:24:16.311Z,7.50
2022-10-18T22:26:45.771Z,7.80
2022-10-18T22:29:19.317Z,8.10
2022-10-18T22:31:53.289Z,6.50
2022-10-18T22:34:29.252Z,6.70
2022-10-18T22:36:57.253Z,7.10
2022-10-18T22:39:25.511Z,5.90
2022-10-18T22:41:56.463Z,7.20
2022-10-18T22:44:26.757Z,5.80
2022-10-18T22:46:54.804Z,5.90
2022-10-18T22:49:22.793Z,5.80
2022-10-18T22:51:50.762Z,5.50
2022-10-18T22:54:19.139Z,6.30
2022-10-18T22:56:47.007Z,6.40
2022-10-18T22:59:15.024Z,6.30
2022-10-18T23:01:42.896Z,5.70
2022-10-18T23:04:11.088Z,5.60
2022-10-18T23:06:40.214Z,6.60
2022-10-18T23:09:10.655Z,6.20
2022-10-18T23:11:38.531Z,6.70
2022-10-18T23:14:07.708Z,6.30
2022-10-18T23:16:36.294Z,5.90
2022-10-18T23:19:04.774Z,6.70
2022-10-18T23:21:34.352Z,6.60
2022-10-18T23:24:02.497Z,6.50
2022-10-18T23:26:30.818Z,6.60
2022-10-18T23:28:59.358Z,7.50
2022-10-18T23:31:30.672Z,7.20
2022-10-18T23:34:02.277Z,7.10
2022-10-18T23:36:32.751Z,7.10
2022-10-18T23:39:01.566Z,6.60
2022-10-18T23:41:29.830Z,6.70
2022-10-18T23:43:57.839Z,6.50
2022-10-18T23:46:26.035Z,6.60
2022-10-18T23:48:54.182Z,6.10
2022-10-18T23:51:22.306Z,5.80
2022-10-18T23:53:50.175Z,5.60
2022-10-18T23:56:18.144Z,6.00
2022-10-18T23:58:46.848Z,5.90
